sensor_id;sensor_type;location;lat;lon;timestamp;P1;durP1;ratioP1;P2;durP2;ratioP2
3769;SDS011;1900;48.890;9.190;2022-09-29T00:01:47;6.17;;;4.40;;
3769;SDS011;1900;48.890;9.190;2022-09-29T00:04:12;12.03;;;4.80;;
3769;SDS011;1900;48.890;9.190;2022-09-29T00:06:38;6.03;;;4.20;;
3769;SDS011;1900;48.890;9.190;2022-09-29T00:09:04;5.10;;;4.40;;
3769;SDS011;1900;48.890;9.190;2022-09-29T00:11:30;10.03;;;4.60;;
3769;SDS011;1900;48.890;9.190;2022-09-29T00:13:55;7.83;;;4.60;;
3769;SDS011;1900;48.890;9.190;2022-09-29T00:16:21;6.27;;;4.10;;
3769;SDS011;1900;48.890;9.190;2022-09-29T00:18:47;7.63;;;4.73;;
3769;SDS011;1900;48.890;9.190;2022-09-29T00:21:14;5.60;;;4.47;;
3769;SDS011;1900;48.890;9.190;2022-09-29T00:23:43;7.50;;;5.13;;
3769;SDS011;1900;48.890;9.190;2022-09-29T00:28:41;6.03;;;3.90;;
3769;SDS011;1900;48.890;9.190;2022-09-29T00:31:11;10.10;;;4.70;;
3769;SDS011;1900;48.890;9.190;2022-09-29T00:33:37;12.23;;;4.80;;
3769;SDS011;1900;48.890;9.190;2022-09-29T00:36:08;6.63;;;4.47;;
3769;SDS011;1900;48.890;9.190;2022-09-29T00:38:36;5.17;;;4.30;;
3769;SDS011;1900;48.890;9.190;2022-09-29T00:41:03;9.17;;;4.63;;
3769;SDS011;1900;48.890;9.190;2022-09-29T00:51:54;8.50;;;5.63;;
3769;SDS011;1900;48.890;9.190;2022-09-29T00:54:38;6.73;;;5.53;;
3769;SDS011;1900;48.890;9.190;2022-09-29T00:57:09;8.77;;;5.30;;
3769;SDS011;1900;48.890;9.190;2022-09-29T00:59:42;6.23;;;4.67;;
3769;SDS011;1900;48.890;9.190;2022-09-29T01:02:13;7.87;;;5.17;;
3769;SDS011;1900;48.890;9.190;2022-09-29T01:04:40;9.00;;;5.00;;
3769;SDS011;1900;48.890;9.190;2022-09-29T01:07:07;8.30;;;5.43;;
3769;SDS011;1900;48.890;9.190;2022-09-29T01:09:35;7.97;;;4.60;;
3769;SDS011;1900;48.890;9.190;2022-09-29T01:12:03;6.33;;;4.80;;
3769;SDS011;1900;48.890;9.190;2022-09-29T01:14:30;7.97;;;4.87;;
3769;SDS011;1900;48.890;9.190;2022-09-29T01:16:57;7.27;;;5.10;;
3769;SDS011;1900;48.890;9.190;2022-09-29T01:22:33;8.30;;;4.67;;
3769;SDS011;1900;48.890;9.190;2022-09-29T01:25:25;9.23;;;4.80;;
3769;SDS011;1900;48.890;9.190;2022-09-29T01:31:03;7.17;;;4.40;;
3769;SDS011;1900;48.890;9.190;2022-09-29T01:33:59;7.70;;;4.70;;
3769;SDS011;1900;48.890;9.190;2022-09-29T01:39:32;10.47;;;4.77;;
3769;SDS011;1900;48.890;9.190;2022-09-29T01:42:21;7.07;;;5.00;;
3769;SDS011;1900;48.890;9.190;2022-09-29T01:44:52;9.17;;;5.60;;
3769;SDS011;1900;48.890;9.190;2022-09-29T01:47:27;7.83;;;4.50;;
3769;SDS011;1900;48.890;9.190;2022-09-29T01:50:16;7.40;;;5.27;;
3769;SDS011;1900;48.890;9.190;2022-09-29T01:52:47;9.77;;;4.73;;
3769;SDS011;1900;48.890;9.190;2022-09-29T01:55:18;10.87;;;5.17;;
3769;SDS011;1900;48.890;9.190;2022-09-29T01:57:58;9.40;;;4.73;;
3769;SDS011;1900;48.890;9.190;2022-09-29T02:00:26;9.63;;;5.57;;
3769;SDS011;1900;48.890;9.190;2022-09-29T02:05:41;5.87;;;4.27;;
3769;SDS011;1900;48.890;9.190;2022-09-29T02:11:05;10.30;;;5.43;;
3769;SDS011;1900;48.890;9.190;2022-09-29T02:13:43;12.20;;;5.80;;
3769;SDS011;1900;48.890;9.190;2022-09-29T02:16:14;9.40;;;5.47;;
3769;SDS011;1900;48.890;9.190;2022-09-29T02:18:52;7.47;;;5.10;;
3769;SDS011;1900;48.890;9.190;2022-09-29T02:21:22;8.70;;;4.27;;
3769;SDS011;1900;48.890;9.190;2022-09-29T02:23:49;10.43;;;6.00;;
3769;SDS011;1900;48.890;9.190;2022-09-29T02:26:16;9.67;;;5.77;;
3769;SDS011;1900;48.890;9.190;2022-09-29T02:28:43;12.13;;;5.37;;
3769;SDS011;1900;48.890;9.190;2022-09-29T02:31:09;9.70;;;5.60;;
3769;SDS011;1900;48.890;9.190;2022-09-29T02:33:36;12.53;;;6.67;;
3769;SDS011;1900;48.890;9.190;2022-09-29T02:42:24;6.50;;;5.47;;
3769;SDS011;1900;48.890;9.190;2022-09-29T02:53:24;6.73;;;4.67;;
3769;SDS011;1900;48.890;9.190;2022-09-29T02:58:57;11.13;;;5.17;;
3769;SDS011;1900;48.890;9.190;2022-09-29T03:01:33;9.23;;;5.27;;
3769;SDS011;1900;48.890;9.190;2022-09-29T03:03:59;9.23;;;5.13;;
3769;SDS011;1900;48.890;9.190;2022-09-29T03:06:25;7.30;;;5.30;;
3769;SDS011;1900;48.890;9.190;2022-09-29T03:08:52;7.00;;;4.87;;
3769;SDS011;1900;48.890;9.190;2022-09-29T03:11:18;9.13;;;5.03;;
3769;SDS011;1900;48.890;9.190;2022-09-29T03:13:44;15.27;;;5.07;;
3769;SDS011;1900;48.890;9.190;2022-09-29T03:16:09;7.03;;;5.10;;
3769;SDS011;1900;48.890;9.190;2022-09-29T03:18:35;9.20;;;5.20;;
3769;SDS011;1900;48.890;9.190;2022-09-29T03:21:01;9.07;;;5.97;;
3769;SDS011;1900;48.890;9.190;2022-09-29T03:23:27;6.33;;;5.07;;
3769;SDS011;1900;48.890;9.190;2022-09-29T03:25:52;6.47;;;4.37;;
3769;SDS011;1900;48.890;9.190;2022-09-29T03:28:18;7.00;;;4.90;;
3769;SDS011;1900;48.890;9.190;2022-09-29T03:30:44;7.00;;;5.07;;
3769;SDS011;1900;48.890;9.190;2022-09-29T03:33:10;6.50;;;4.67;;
3769;SDS011;1900;48.890;9.190;2022-09-29T03:35:36;7.50;;;3.80;;
3769;SDS011;1900;48.890;9.190;2022-09-29T03:38:02;6.30;;;4.30;;
3769;SDS011;1900;48.890;9.190;2022-09-29T03:40:27;6.67;;;4.13;;
3769;SDS011;1900;48.890;9.190;2022-09-29T03:42:53;5.47;;;4.87;;
3769;SDS011;1900;48.890;9.190;2022-09-29T03:45:19;9.73;;;4.80;;
3769;SDS011;1900;48.890;9.190;2022-09-29T03:47:45;4.67;;;4.13;;
3769;SDS011;1900;48.890;9.190;2022-09-29T03:50:10;6.27;;;4.10;;
3769;SDS011;1900;48.890;9.190;2022-09-29T03:52:37;4.53;;;3.37;;
3769;SDS011;1900;48.890;9.190;2022-09-29T03:55:03;5.70;;;4.40;;
3769;SDS011;1900;48.890;9.190;2022-09-29T03:57:29;9.90;;;3.93;;
3769;SDS011;1900;48.890;9.190;2022-09-29T03:59:55;8.00;;;4.30;;
3769;SDS011;1900;48.890;9.190;2022-09-29T04:02:21;15.70;;;5.57;;
3769;SDS011;1900;48.890;9.190;2022-09-29T04:04:47;6.80;;;4.17;;
3769;SDS011;1900;48.890;9.190;2022-09-29T04:07:13;7.13;;;4.80;;
3769;SDS011;1900;48.890;9.190;2022-09-29T04:09:38;10.20;;;5.07;;
3769;SDS011;1900;48.890;9.190;2022-09-29T04:12:04;9.83;;;4.80;;
3769;SDS011;1900;48.890;9.190;2022-09-29T04:14:30;6.23;;;4.03;;
3769;SDS011;1900;48.890;9.190;2022-09-29T04:16:55;6.23;;;3.97;;
3769;SDS011;1900;48.890;9.190;2022-09-29T04:19:21;7.30;;;4.47;;
3769;SDS011;1900;48.890;9.190;2022-09-29T04:21:47;6.77;;;5.40;;
3769;SDS011;1900;48.890;9.190;2022-09-29T04:24:12;6.70;;;4.77;;
3769;SDS011;1900;48.890;9.190;2022-09-29T04:26:38;5.80;;;4.20;;
3769;SDS011;1900;48.890;9.190;2022-09-29T04:29:04;7.97;;;4.20;;
3769;SDS011;1900;48.890;9.190;2022-09-29T04:31:30;7.17;;;4.47;;
3769;SDS011;1900;48.890;9.190;2022-09-29T04:33:56;6.43;;;4.23;;
3769;SDS011;1900;48.890;9.190;2022-09-29T04:36:21;9.93;;;4.40;;
3769;SDS011;1900;48.890;9.190;2022-09-29T04:38:47;4.93;;;3.70;;
3769;SDS011;1900;48.890;9.190;2022-09-29T04:41:15;5.93;;;4.10;;
3769;SDS011;1900;48.890;9.190;2022-09-29T04:43:41;6.77;;;4.00;;
3769;SDS011;1900;48.890;9.190;2022-09-29T04:46:07;4.83;;;3.97;;
3769;SDS011;1900;48.890;9.190;2022-09-29T04:48:34;11.07;;;3.60;;
3769;SDS011;1900;48.890;9.190;2022-09-29T04:51:00;3.97;;;3.57;;
3769;SDS011;1900;48.890;9.190;2022-09-29T04:53:26;8.83;;;4.00;;
3769;SDS011;1900;48.890;9.190;2022-09-29T04:55:52;5.30;;;3.83;;
3769;SDS011;1900;48.890;9.190;2022-09-29T04:58:18;4.20;;;3.47;;
3769;SDS011;1900;48.890;9.190;2022-09-29T05:00:44;7.20;;;3.57;;
3769;SDS011;1900;48.890;9.190;2022-09-29T05:03:10;5.37;;;4.00;;
3769;SDS011;1900;48.890;9.190;2022-09-29T05:05:36;6.50;;;4.60;;
3769;SDS011;1900;48.890;9.190;2022-09-29T05:08:02;7.80;;;4.03;;
3769;SDS011;1900;48.890;9.190;2022-09-29T05:10:28;7.07;;;4.50;;
3769;SDS011;1900;48.890;9.190;2022-09-29T05:12:54;7.60;;;5.20;;
3769;SDS011;1900;48.890;9.190;2022-09-29T05:15:20;7.13;;;4.07;;
3769;SDS011;1900;48.890;9.190;2022-09-29T05:17:46;6.50;;;4.53;;
3769;SDS011;1900;48.890;9.190;2022-09-29T05:20:11;7.90;;;4.70;;
3769;SDS011;1900;48.890;9.190;2022-09-29T05:22:37;4.80;;;3.63;;
3769;SDS011;1900;48.890;9.190;2022-09-29T05:25:03;9.50;;;4.27;;
3769;SDS011;1900;48.890;9.190;2022-09-29T05:27:29;5.73;;;4.23;;
3769;SDS011;1900;48.890;9.190;2022-09-29T05:29:55;5.57;;;4.27;;
3769;SDS011;1900;48.890;9.190;2022-09-29T05:32:21;7.03;;;4.30;;
3769;SDS011;1900;48.890;9.190;2022-09-29T05:34:46;5.33;;;3.83;;
3769;SDS011;1900;48.890;9.190;2022-09-29T05:37:12;4.70;;;3.83;;
3769;SDS011;1900;48.890;9.190;2022-09-29T05:39:37;7.07;;;4.00;;
3769;SDS011;1900;48.890;9.190;2022-09-29T05:42:04;6.93;;;4.50;;
3769;SDS011;1900;48.890;9.190;2022-09-29T05:44:34;13.00;;;4.23;;
3769;SDS011;1900;48.890;9.190;2022-09-29T05:46:59;6.27;;;4.07;;
3769;SDS011;1900;48.890;9.190;2022-09-29T05:49:25;8.17;;;3.80;;
3769;SDS011;1900;48.890;9.190;2022-09-29T05:51:51;5.60;;;4.40;;
3769;SDS011;1900;48.890;9.190;2022-09-29T05:54:16;7.13;;;4.57;;
3769;SDS011;1900;48.890;9.190;2022-09-29T05:56:42;6.90;;;5.10;;
3769;SDS011;1900;48.890;9.190;2022-09-29T05:59:08;6.53;;;5.50;;
3769;SDS011;1900;48.890;9.190;2022-09-29T06:01:34;7.77;;;5.03;;
3769;SDS011;1900;48.890;9.190;2022-09-29T06:04:00;7.37;;;4.57;;
3769;SDS011;1900;48.890;9.190;2022-09-29T06:06:28;4.73;;;4.20;;
3769;SDS011;1900;48.890;9.190;2022-09-29T06:08:54;12.83;;;5.20;;
3769;SDS011;1900;48.890;9.190;2022-09-29T06:11:22;9.50;;;4.83;;
3769;SDS011;1900;48.890;9.190;2022-09-29T06:13:52;10.30;;;6.23;;
3769;SDS011;1900;48.890;9.190;2022-09-29T06:16:19;6.13;;;5.03;;
3769;SDS011;1900;48.890;9.190;2022-09-29T06:18:49;12.20;;;5.17;;
3769;SDS011;1900;48.890;9.190;2022-09-29T06:21:16;7.37;;;5.13;;
3769;SDS011;1900;48.890;9.190;2022-09-29T06:23:47;8.10;;;5.10;;
3769;SDS011;1900;48.890;9.190;2022-09-29T06:26:15;10.23;;;5.03;;
3769;SDS011;1900;48.890;9.190;2022-09-29T06:28:42;7.03;;;5.00;;
3769;SDS011;1900;48.890;9.190;2022-09-29T06:31:09;13.13;;;6.67;;
3769;SDS011;1900;48.890;9.190;2022-09-29T06:33:37;6.00;;;4.90;;
3769;SDS011;1900;48.890;9.190;2022-09-29T06:36:04;15.77;;;5.60;;
3769;SDS011;1900;48.890;9.190;2022-09-29T06:39:00;8.30;;;6.57;;
3769;SDS011;1900;48.890;9.190;2022-09-29T06:41:28;9.03;;;5.13;;
3769;SDS011;1900;48.890;9.190;2022-09-29T06:43:54;18.43;;;11.50;;
3769;SDS011;1900;48.890;9.190;2022-09-29T06:46:21;14.77;;;9.47;;
3769;SDS011;1900;48.890;9.190;2022-09-29T06:48:46;10.93;;;4.70;;
3769;SDS011;1900;48.890;9.190;2022-09-29T06:51:12;16.27;;;5.50;;
3769;SDS011;1900;48.890;9.190;2022-09-29T06:53:39;8.90;;;5.40;;
3769;SDS011;1900;48.890;9.190;2022-09-29T06:56:05;6.37;;;4.30;;
3769;SDS011;1900;48.890;9.190;2022-09-29T06:58:33;6.37;;;4.77;;
3769;SDS011;1900;48.890;9.190;2022-09-29T07:00:59;8.37;;;4.40;;
3769;SDS011;1900;48.890;9.190;2022-09-29T07:03:26;6.93;;;4.63;;
3769;SDS011;1900;48.890;9.190;2022-09-29T07:05:54;14.90;;;4.90;;
3769;SDS011;1900;48.890;9.190;2022-09-29T07:08:20;6.97;;;4.37;;
3769;SDS011;1900;48.890;9.190;2022-09-29T07:10:46;5.97;;;4.33;;
3769;SDS011;1900;48.890;9.190;2022-09-29T07:13:12;16.33;;;4.57;;
3769;SDS011;1900;48.890;9.190;2022-09-29T07:15:38;7.90;;;3.80;;
3769;SDS011;1900;48.890;9.190;2022-09-29T07:18:04;6.33;;;4.57;;
3769;SDS011;1900;48.890;9.190;2022-09-29T07:20:30;6.60;;;4.53;;
3769;SDS011;1900;48.890;9.190;2022-09-29T07:22:56;8.23;;;4.70;;
3769;SDS011;1900;48.890;9.190;2022-09-29T07:25:22;10.93;;;4.60;;
3769;SDS011;1900;48.890;9.190;2022-09-29T07:27:48;5.33;;;4.40;;
3769;SDS011;1900;48.890;9.190;2022-09-29T07:30:15;5.80;;;4.67;;
3769;SDS011;1900;48.890;9.190;2022-09-29T07:32:42;15.50;;;5.23;;
3769;SDS011;1900;48.890;9.190;2022-09-29T07:35:08;8.73;;;5.67;;
3769;SDS011;1900;48.890;9.190;2022-09-29T07:37:34;9.67;;;5.67;;
3769;SDS011;1900;48.890;9.190;2022-09-29T07:40:00;10.20;;;6.33;;
3769;SDS011;1900;48.890;9.190;2022-09-29T07:42:29;9.80;;;5.60;;
3769;SDS011;1900;48.890;9.190;2022-09-29T07:44:55;10.13;;;5.97;;
3769;SDS011;1900;48.890;9.190;2022-09-29T07:47:21;9.70;;;5.37;;
3769;SDS011;1900;48.890;9.190;2022-09-29T07:49:47;7.13;;;5.17;;
3769;SDS011;1900;48.890;9.190;2022-09-29T07:52:13;13.30;;;6.37;;
3769;SDS011;1900;48.890;9.190;2022-09-29T07:54:39;10.57;;;5.47;;
3769;SDS011;1900;48.890;9.190;2022-09-29T07:57:04;8.30;;;5.13;;
3769;SDS011;1900;48.890;9.190;2022-09-29T07:59:30;8.60;;;4.90;;
3769;SDS011;1900;48.890;9.190;2022-09-29T08:01:56;8.60;;;5.33;;
3769;SDS011;1900;48.890;9.190;2022-09-29T08:04:22;6.83;;;5.20;;
3769;SDS011;1900;48.890;9.190;2022-09-29T08:06:48;9.40;;;6.13;;
3769;SDS011;1900;48.890;9.190;2022-09-29T08:09:14;6.33;;;5.40;;
3769;SDS011;1900;48.890;9.190;2022-09-29T08:11:40;8.80;;;5.07;;
3769;SDS011;1900;48.890;9.190;2022-09-29T08:14:07;8.93;;;4.97;;
3769;SDS011;1900;48.890;9.190;2022-09-29T08:16:34;6.60;;;5.30;;
3769;SDS011;1900;48.890;9.190;2022-09-29T08:19:01;9.67;;;5.47;;
3769;SDS011;1900;48.890;9.190;2022-09-29T08:21:28;6.93;;;4.97;;
3769;SDS011;1900;48.890;9.190;2022-09-29T08:23:54;8.03;;;5.70;;
3769;SDS011;1900;48.890;9.190;2022-09-29T08:26:20;5.63;;;5.00;;
3769;SDS011;1900;48.890;9.190;2022-09-29T08:28:47;6.77;;;4.60;;
3769;SDS011;1900;48.890;9.190;2022-09-29T08:31:16;5.73;;;3.93;;
3769;SDS011;1900;48.890;9.190;2022-09-29T08:33:49;10.03;;;5.07;;
3769;SDS011;1900;48.890;9.190;2022-09-29T08:36:16;6.77;;;4.80;;
3769;SDS011;1900;48.890;9.190;2022-09-29T08:38:43;6.00;;;4.40;;
3769;SDS011;1900;48.890;9.190;2022-09-29T08:47:28;5.83;;;3.50;;
3769;SDS011;1900;48.890;9.190;2022-09-29T08:50:03;5.17;;;4.10;;
3769;SDS011;1900;48.890;9.190;2022-09-29T08:52:37;6.93;;;4.17;;
3769;SDS011;1900;48.890;9.190;2022-09-29T08:57:46;8.07;;;3.93;;
3769;SDS011;1900;48.890;9.190;2022-09-29T09:00:17;5.30;;;4.43;;
3769;SDS011;1900;48.890;9.190;2022-09-29T09:08:16;4.70;;;3.30;;
3769;SDS011;1900;48.890;9.190;2022-09-29T09:11:05;7.20;;;3.43;;
3769;SDS011;1900;48.890;9.190;2022-09-29T09:19:46;4.70;;;3.47;;
3769;SDS011;1900;48.890;9.190;2022-09-29T09:27:26;9.20;;;4.30;;
3769;SDS011;1900;48.890;9.190;2022-09-29T09:30:22;6.40;;;3.63;;
3769;SDS011;1900;48.890;9.190;2022-09-29T09:32:53;5.67;;;3.83;;
3769;SDS011;1900;48.890;9.190;2022-09-29T09:35:42;4.13;;;3.33;;
3769;SDS011;1900;48.890;9.190;2022-09-29T09:38:17;6.90;;;4.07;;
3769;SDS011;1900;48.890;9.190;2022-09-29T09:41:06;4.40;;;3.20;;
3769;SDS011;1900;48.890;9.190;2022-09-29T09:43:35;8.50;;;4.50;;
3769;SDS011;1900;48.890;9.190;2022-09-29T09:48:44;5.40;;;3.10;;
3769;SDS011;1900;48.890;9.190;2022-09-29T09:54:55;5.47;;;3.90;;
3769;SDS011;1900;48.890;9.190;2022-09-29T09:57:08;7.00;;;3.50;;
3769;SDS011;1900;48.890;9.190;2022-09-29T10:00:15;5.40;;;3.40;;
3769;SDS011;1900;48.890;9.190;2022-09-29T10:05:12;6.57;;;3.97;;
3769;SDS011;1900;48.890;9.190;2022-09-29T10:07:40;5.63;;;3.80;;
3769;SDS011;1900;48.890;9.190;2022-09-29T10:10:13;5.97;;;3.70;;
3769;SDS011;1900;48.890;9.190;2022-09-29T10:13:04;5.87;;;3.90;;
3769;SDS011;1900;48.890;9.190;2022-09-29T10:15:35;7.33;;;4.50;;
3769;SDS011;1900;48.890;9.190;2022-09-29T10:21:00;4.97;;;3.60;;
3769;SDS011;1900;48.890;9.190;2022-09-29T10:23:27;8.30;;;3.70;;
3769;SDS011;1900;48.890;9.190;2022-09-29T10:26:08;9.63;;;3.60;;
3769;SDS011;1900;48.890;9.190;2022-09-29T10:31:18;7.87;;;3.57;;
3769;SDS011;1900;48.890;9.190;2022-09-29T10:33:57;7.33;;;3.20;;
3769;SDS011;1900;48.890;9.190;2022-09-29T10:36:26;7.43;;;3.30;;
3769;SDS011;1900;48.890;9.190;2022-09-29T10:38:55;9.40;;;4.57;;
3769;SDS011;1900;48.890;9.190;2022-09-29T10:41:22;7.23;;;2.83;;
3769;SDS011;1900;48.890;9.190;2022-09-29T10:43:49;6.30;;;3.23;;
3769;SDS011;1900;48.890;9.190;2022-09-29T10:51:39;4.47;;;3.00;;
3769;SDS011;1900;48.890;9.190;2022-09-29T10:54:13;5.47;;;3.43;;
3769;SDS011;1900;48.890;9.190;2022-09-29T10:56:44;7.03;;;4.17;;
3769;SDS011;1900;48.890;9.190;2022-09-29T10:59:12;8.93;;;3.97;;
3769;SDS011;1900;48.890;9.190;2022-09-29T11:01:43;5.93;;;3.30;;
3769;SDS011;1900;48.890;9.190;2022-09-29T11:07:08;6.00;;;3.23;;
3769;SDS011;1900;48.890;9.190;2022-09-29T11:09:40;6.30;;;3.20;;
3769;SDS011;1900;48.890;9.190;2022-09-29T11:12:23;5.47;;;3.00;;
3769;SDS011;1900;48.890;9.190;2022-09-29T11:14:49;8.67;;;3.83;;
3769;SDS011;1900;48.890;9.190;2022-09-29T11:17:28;5.10;;;3.20;;
3769;SDS011;1900;48.890;9.190;2022-09-29T11:20:03;6.10;;;3.63;;
3769;SDS011;1900;48.890;9.190;2022-09-29T11:30:15;8.67;;;3.77;;
3769;SDS011;1900;48.890;9.190;2022-09-29T11:35:47;8.03;;;2.37;;
3769;SDS011;1900;48.890;9.190;2022-09-29T11:41:30;3.10;;;2.50;;
3769;SDS011;1900;48.890;9.190;2022-09-29T11:44:19;4.70;;;2.57;;
3769;SDS011;1900;48.890;9.190;2022-09-29T11:55:01;3.47;;;2.10;;
3769;SDS011;1900;48.890;9.190;2022-09-29T12:00:18;4.73;;;2.50;;
3769;SDS011;1900;48.890;9.190;2022-09-29T12:11:14;3.07;;;2.20;;
3769;SDS011;1900;48.890;9.190;2022-09-29T12:14:13;6.97;;;2.83;;
3769;SDS011;1900;48.890;9.190;2022-09-29T12:16:56;3.73;;;2.07;;
3769;SDS011;1900;48.890;9.190;2022-09-29T12:19:27;4.50;;;2.43;;
3769;SDS011;1900;48.890;9.190;2022-09-29T12:21:58;7.80;;;3.10;;
3769;SDS011;1900;48.890;9.190;2022-09-29T12:27:11;5.30;;;2.30;;
3769;SDS011;1900;48.890;9.190;2022-09-29T12:29:42;10.33;;;2.90;;
3769;SDS011;1900;48.890;9.190;2022-09-29T12:32:36;6.43;;;2.90;;
3769;SDS011;1900;48.890;9.190;2022-09-29T12:35:09;3.67;;;2.20;;
3769;SDS011;1900;48.890;9.190;2022-09-29T12:38:05;4.60;;;2.83;;
3769;SDS011;1900;48.890;9.190;2022-09-29T12:40:52;7.47;;;4.30;;
3769;SDS011;1900;48.890;9.190;2022-09-29T12:46:24;4.20;;;3.30;;
3769;SDS011;1900;48.890;9.190;2022-09-29T12:51:32;9.70;;;3.30;;
3769;SDS011;1900;48.890;9.190;2022-09-29T12:54:13;3.17;;;2.60;;
3769;SDS011;1900;48.890;9.190;2022-09-29T12:56:53;5.43;;;2.70;;
3769;SDS011;1900;48.890;9.190;2022-09-29T13:01:49;11.43;;;2.60;;
3769;SDS011;1900;48.890;9.190;2022-09-29T13:07:20;4.57;;;2.70;;
3769;SDS011;1900;48.890;9.190;2022-09-29T13:12:54;4.93;;;2.70;;
3769;SDS011;1900;48.890;9.190;2022-09-29T13:15:48;6.87;;;2.70;;
3769;SDS011;1900;48.890;9.190;2022-09-29T13:21:25;3.33;;;2.20;;
3769;SDS011;1900;48.890;9.190;2022-09-29T13:29:17;3.17;;;2.40;;
3769;SDS011;1900;48.890;9.190;2022-09-29T13:31:46;5.03;;;2.53;;
3769;SDS011;1900;48.890;9.190;2022-09-29T13:34:25;3.87;;;2.40;;
3769;SDS011;1900;48.890;9.190;2022-09-29T13:37:06;5.60;;;2.70;;
3769;SDS011;1900;48.890;9.190;2022-09-29T13:39:41;4.33;;;2.47;;
3769;SDS011;1900;48.890;9.190;2022-09-29T13:42:38;5.00;;;2.80;;
3769;SDS011;1900;48.890;9.190;2022-09-29T13:45:14;5.30;;;2.70;;
3769;SDS011;1900;48.890;9.190;2022-09-29T13:47:47;3.30;;;1.80;;
3769;SDS011;1900;48.890;9.190;2022-09-29T13:58:24;4.00;;;2.07;;
3769;SDS011;1900;48.890;9.190;2022-09-29T14:00:59;5.33;;;2.20;;
3769;SDS011;1900;48.890;9.190;2022-09-29T14:06:06;6.07;;;2.40;;
3769;SDS011;1900;48.890;9.190;2022-09-29T14:08:47;4.73;;;2.67;;
3769;SDS011;1900;48.890;9.190;2022-09-29T14:14:05;5.20;;;2.53;;
3769;SDS011;1900;48.890;9.190;2022-09-29T14:30:38;5.30;;;2.30;;
3769;SDS011;1900;48.890;9.190;2022-09-29T14:33:12;8.17;;;2.70;;
3769;SDS011;1900;48.890;9.190;2022-09-29T14:38:32;4.07;;;3.00;;
3769;SDS011;1900;48.890;9.190;2022-09-29T14:49:09;5.77;;;2.47;;
3769;SDS011;1900;48.890;9.190;2022-09-29T14:58:18;5.00;;;2.63;;
3769;SDS011;1900;48.890;9.190;2022-09-29T15:03:44;3.37;;;2.30;;
3769;SDS011;1900;48.890;9.190;2022-09-29T15:06:15;2.70;;;2.07;;
3769;SDS011;1900;48.890;9.190;2022-09-29T15:22:13;6.13;;;2.83;;
3769;SDS011;1900;48.890;9.190;2022-09-29T15:25:09;5.30;;;2.40;;
3769;SDS011;1900;48.890;9.190;2022-09-29T15:28:01;4.53;;;2.30;;
3769;SDS011;1900;48.890;9.190;2022-09-29T15:30:36;3.60;;;2.17;;
3769;SDS011;1900;48.890;9.190;2022-09-29T15:33:23;3.83;;;2.20;;
3769;SDS011;1900;48.890;9.190;2022-09-29T15:35:51;7.40;;;2.70;;
3769;SDS011;1900;48.890;9.190;2022-09-29T15:40:53;4.00;;;2.70;;
3769;SDS011;1900;48.890;9.190;2022-09-29T15:43:21;5.87;;;2.70;;
3769;SDS011;1900;48.890;9.190;2022-09-29T15:46:18;5.13;;;2.07;;
3769;SDS011;1900;48.890;9.190;2022-09-29T15:51:56;7.67;;;2.60;;
3769;SDS011;1900;48.890;9.190;2022-09-29T15:54:23;3.70;;;2.60;;
3769;SDS011;1900;48.890;9.190;2022-09-29T15:56:50;4.10;;;2.33;;
3769;SDS011;1900;48.890;9.190;2022-09-29T15:59:44;4.90;;;1.97;;
3769;SDS011;1900;48.890;9.190;2022-09-29T16:04:47;8.43;;;2.53;;
3769;SDS011;1900;48.890;9.190;2022-09-29T16:07:19;6.40;;;2.10;;
3769;SDS011;1900;48.890;9.190;2022-09-29T16:09:49;4.97;;;1.97;;
3769;SDS011;1900;48.890;9.190;2022-09-29T16:12:15;4.43;;;2.33;;
3769;SDS011;1900;48.890;9.190;2022-09-29T16:14:44;4.80;;;2.30;;
3769;SDS011;1900;48.890;9.190;2022-09-29T16:17:11;2.73;;;2.00;;
3769;SDS011;1900;48.890;9.190;2022-09-29T16:19:37;3.97;;;2.10;;
3769;SDS011;1900;48.890;9.190;2022-09-29T16:22:13;5.73;;;2.73;;
3769;SDS011;1900;48.890;9.190;2022-09-29T16:25:45;3.40;;;2.20;;
3769;SDS011;1900;48.890;9.190;2022-09-29T16:27:55;6.27;;;2.50;;
3769;SDS011;1900;48.890;9.190;2022-09-29T16:30:26;5.57;;;2.20;;
3769;SDS011;1900;48.890;9.190;2022-09-29T16:38:17;8.40;;;2.90;;
3769;SDS011;1900;48.890;9.190;2022-09-29T16:40:49;3.00;;;2.40;;
3769;SDS011;1900;48.890;9.190;2022-09-29T16:43:29;7.67;;;2.60;;
3769;SDS011;1900;48.890;9.190;2022-09-29T16:45:56;4.40;;;2.60;;
3769;SDS011;1900;48.890;9.190;2022-09-29T16:48:24;3.17;;;2.37;;
3769;SDS011;1900;48.890;9.190;2022-09-29T16:50:54;5.33;;;2.80;;
3769;SDS011;1900;48.890;9.190;2022-09-29T16:53:27;6.13;;;3.00;;
3769;SDS011;1900;48.890;9.190;2022-09-29T16:58:26;6.20;;;3.60;;
3769;SDS011;1900;48.890;9.190;2022-09-29T17:00:53;5.37;;;3.10;;
3769;SDS011;1900;48.890;9.190;2022-09-29T17:03:19;5.60;;;3.03;;
3769;SDS011;1900;48.890;9.190;2022-09-29T17:05:45;5.33;;;3.60;;
3769;SDS011;1900;48.890;9.190;2022-09-29T17:08:15;6.20;;;2.47;;
3769;SDS011;1900;48.890;9.190;2022-09-29T17:10:46;7.20;;;2.93;;
3769;SDS011;1900;48.890;9.190;2022-09-29T17:13:13;5.70;;;2.50;;
3769;SDS011;1900;48.890;9.190;2022-09-29T17:15:40;6.03;;;3.10;;
3769;SDS011;1900;48.890;9.190;2022-09-29T17:18:11;4.73;;;2.47;;
3769;SDS011;1900;48.890;9.190;2022-09-29T17:20:37;11.03;;;3.40;;
3769;SDS011;1900;48.890;9.190;2022-09-29T17:23:03;8.80;;;3.50;;
3769;SDS011;1900;48.890;9.190;2022-09-29T17:25:30;7.20;;;2.83;;
3769;SDS011;1900;48.890;9.190;2022-09-29T17:27:57;9.53;;;2.83;;
3769;SDS011;1900;48.890;9.190;2022-09-29T17:30:40;26.57;;;3.87;;
3769;SDS011;1900;48.890;9.190;2022-09-29T17:33:09;4.50;;;2.90;;
3769;SDS011;1900;48.890;9.190;2022-09-29T17:35:38;3.40;;;3.10;;
3769;SDS011;1900;48.890;9.190;2022-09-29T17:38:05;4.67;;;3.13;;
3769;SDS011;1900;48.890;9.190;2022-09-29T17:40:39;7.67;;;4.10;;
3769;SDS011;1900;48.890;9.190;2022-09-29T17:43:09;5.83;;;3.60;;
3769;SDS011;1900;48.890;9.190;2022-09-29T17:45:34;9.47;;;5.17;;
3769;SDS011;1900;48.890;9.190;2022-09-29T17:48:03;11.23;;;4.50;;
3769;SDS011;1900;48.890;9.190;2022-09-29T17:50:36;8.83;;;6.23;;
3769;SDS011;1900;48.890;9.190;2022-09-29T17:53:08;11.10;;;7.40;;
3769;SDS011;1900;48.890;9.190;2022-09-29T17:55:39;14.50;;;7.43;;
3769;SDS011;1900;48.890;9.190;2022-09-29T17:58:05;13.50;;;7.90;;
3769;SDS011;1900;48.890;9.190;2022-09-29T18:00:35;13.23;;;8.07;;
3769;SDS011;1900;48.890;9.190;2022-09-29T18:03:09;11.57;;;7.13;;
3769;SDS011;1900;48.890;9.190;2022-09-29T18:05:39;12.33;;;6.37;;
3769;SDS011;1900;48.890;9.190;2022-09-29T18:08:06;14.90;;;5.70;;
3769;SDS011;1900;48.890;9.190;2022-09-29T18:10:48;11.10;;;6.73;;
3769;SDS011;1900;48.890;9.190;2022-09-29T18:13:19;9.67;;;6.47;;
3769;SDS011;1900;48.890;9.190;2022-09-29T18:15:45;9.70;;;6.17;;
3769;SDS011;1900;48.890;9.190;2022-09-29T18:18:12;10.97;;;6.60;;
3769;SDS011;1900;48.890;9.190;2022-09-29T18:20:40;10.10;;;6.00;;
3769;SDS011;1900;48.890;9.190;2022-09-29T18:23:06;7.17;;;5.03;;
3769;SDS011;1900;48.890;9.190;2022-09-29T18:25:32;10.90;;;5.50;;
3769;SDS011;1900;48.890;9.190;2022-09-29T18:27:59;7.30;;;5.13;;
3769;SDS011;1900;48.890;9.190;2022-09-29T18:30:27;8.07;;;4.87;;
3769;SDS011;1900;48.890;9.190;2022-09-29T18:32:55;8.50;;;5.10;;
3769;SDS011;1900;48.890;9.190;2022-09-29T18:35:27;12.53;;;5.00;;
3769;SDS011;1900;48.890;9.190;2022-09-29T18:37:55;6.00;;;4.50;;
3769;SDS011;1900;48.890;9.190;2022-09-29T18:40:22;10.63;;;4.30;;
3769;SDS011;1900;48.890;9.190;2022-09-29T18:42:49;9.00;;;4.63;;
3769;SDS011;1900;48.890;9.190;2022-09-29T18:45:17;9.03;;;5.20;;
3769;SDS011;1900;48.890;9.190;2022-09-29T18:47:54;9.00;;;4.33;;
3769;SDS011;1900;48.890;9.190;2022-09-29T18:50:28;9.40;;;5.47;;
3769;SDS011;1900;48.890;9.190;2022-09-29T18:52:55;7.07;;;5.53;;
3769;SDS011;1900;48.890;9.190;2022-09-29T18:55:23;9.63;;;5.83;;
3769;SDS011;1900;48.890;9.190;2022-09-29T18:57:51;8.80;;;5.73;;
3769;SDS011;1900;48.890;9.190;2022-09-29T19:00:19;12.90;;;5.27;;
3769;SDS011;1900;48.890;9.190;2022-09-29T19:02:46;10.43;;;5.83;;
3769;SDS011;1900;48.890;9.190;2022-09-29T19:05:14;14.20;;;7.07;;
3769;SDS011;1900;48.890;9.190;2022-09-29T19:07:43;9.90;;;6.10;;
3769;SDS011;1900;48.890;9.190;2022-09-29T19:10:09;11.60;;;5.83;;
3769;SDS011;1900;48.890;9.190;2022-09-29T19:12:36;13.37;;;6.67;;
3769;SDS011;1900;48.890;9.190;2022-09-29T19:15:02;11.57;;;6.80;;
3769;SDS011;1900;48.890;9.190;2022-09-29T19:17:29;14.07;;;7.70;;
3769;SDS011;1900;48.890;9.190;2022-09-29T19:19:58;18.70;;;9.17;;